Time;durP1;ratioP1;P1;durP2;ratioP2;P2;SDS_P1;SDS_P2;PMS_P1;PMS_P2;Temp;Humidity;BMP_temperature;BMP_pressure;BME280_temperature;BME280_humidity;BME280_pressure;Samples;Min_cycle;Max_cycle;Signal;HPM_P1;HPM_P2
2022/04/07 00:02:01;;;;;;;6.67;3.33;;;9.50;99.90;;;10.51;87.51;-20084.72;5014199;28;20218;-59
2022/04/07 00:04:30;;;;;;;5.33;3.17;;;9.60;99.90;;;10.38;88.62;-20080.09;5032117;28;20253;-62
2022/04/07 00:06:58;;;;;;;5.20;3.20;;;9.60;99.90;;;10.25;88.89;-20075.66;5032317;28;20218;-60
2022/04/07 00:09:26;;;;;;;3.60;3.10;;;9.60;99.90;;;10.28;89.08;-20076.69;5032129;28;20746;-61
2022/04/07 00:11:54;;;;;;;4.10;3.10;;;9.60;99.90;;;10.28;89.05;-20076.69;5031813;28;20253;-61
2022/04/07 00:14:23;;;;;;;3.83;2.87;;;9.60;99.90;;;10.55;88.68;-20085.91;5031837;28;20309;-61
2022/04/07 00:16:51;;;;;;;3.67;3.00;;;9.60;99.90;;;10.85;85.71;-20096.34;5032092;28;20622;-61
2022/04/07 00:19:20;;;;;;;4.77;3.10;;;9.80;99.90;;;10.86;86.10;-20096.66;5032163;28;20689;-61
2022/04/07 00:21:48;;;;;;;4.30;2.80;;;9.90;99.90;;;10.99;85.29;-20100.94;5032478;28;20736;-59
2022/04/07 00:24:16;;;;;;;3.30;2.60;;;10.00;99.90;;;10.62;86.98;-20088.47;5031676;28;20244;-60
2022/04/07 00:26:44;;;;;;;3.33;2.90;;;9.90;99.90;;;10.56;87.52;-20086.44;5031449;28;20257;-62
2022/04/07 00:29:12;;;;;;;5.50;3.07;;;9.90;99.90;;;10.48;88.76;-20083.53;5031623;28;20777;-60
2022/04/07 00:31:42;;;;;;;4.77;3.10;;;9.90;99.90;;;10.67;87.67;-20090.19;5031683;28;20233;-60
2022/04/07 00:34:11;;;;;;;3.87;3.03;;;9.80;99.90;;;10.75;88.00;-20092.75;5031758;28;20238;-61
2022/04/07 00:36:40;;;;;;;4.70;2.80;;;9.90;99.90;;;10.87;86.95;-20097.00;5032131;28;20202;-60
2022/04/07 00:39:08;;;;;;;5.37;2.90;;;9.90;99.90;;;10.79;86.48;-20094.13;5031282;28;20225;-62
2022/04/07 00:41:38;;;;;;;3.10;2.80;;;10.00;99.90;;;10.59;88.23;-20087.44;5017421;28;20598;-61
2022/04/07 00:44:08;;;;;;;3.83;3.00;;;9.90;99.90;;;10.39;90.05;-20080.44;5011471;28;20222;-60
2022/04/07 00:46:37;;;;;;;3.83;3.43;;;9.80;99.90;;;10.36;91.14;-20079.41;5009587;28;20601;-62
2022/04/07 00:49:09;;;;;;;3.87;2.90;;;9.70;99.90;;;10.29;91.56;-20077.03;5011400;28;20206;-61
2022/04/07 00:51:40;;;;;;;3.43;2.60;;;9.60;99.90;;;10.47;90.55;-20083.19;5011622;28;20633;-61
2022/04/07 00:54:11;;;;;;;4.37;3.53;;;9.70;99.90;;;10.40;91.10;-20080.78;5011370;28;20231;-60
2022/04/07 00:56:41;;;;;;;5.13;3.50;;;9.60;99.90;;;10.34;91.78;-20078.75;5011341;28;20265;-61
2022/04/07 00:59:16;;;;;;;5.47;3.23;;;9.60;99.90;;;10.26;92.74;-20076.00;5011382;28;20345;-61
2022/04/07 01:01:45;;;;;;;4.87;3.70;;;9.50;99.90;;;10.08;94.06;-20069.84;5011507;28;20222;-62
2022/04/07 01:04:17;;;;;;;3.63;3.20;;;9.50;99.90;;;10.17;93.88;-20073.09;5023119;28;20634;-61
2022/04/07 01:06:47;;;;;;;7.27;3.43;;;9.40;99.90;;;10.05;94.41;-20069.00;5031262;28;20706;-61
2022/04/07 01:09:16;;;;;;;3.70;3.40;;;9.40;99.90;;;10.00;95.11;-20067.28;5030795;28;20345;-60
2022/04/07 01:11:46;;;;;;;4.10;3.20;;;9.40;99.90;;;10.12;94.50;-20071.41;5030605;28;20253;-61
2022/04/07 01:14:15;;;;;;;4.00;2.90;;;9.40;99.90;;;10.06;95.21;-20069.16;5030987;28;20225;-62
2022/04/07 01:16:43;;;;;;;4.00;3.27;;;9.30;99.90;;;10.24;93.69;-20075.50;5030776;28;20308;-62
2022/04/07 01:19:11;;;;;;;4.37;3.10;;;9.40;99.90;;;10.08;94.51;-20069.84;5030875;28;20230;-60
2022/04/07 01:21:42;;;;;;;4.67;3.10;;;9.40;99.90;;;10.08;94.74;-20070.03;5031310;28;20240;-62
2022/04/07 01:24:13;;;;;;;3.80;3.27;;;9.30;99.90;;;10.02;94.97;-20067.81;5030462;28;20741;-62
2022/04/07 01:26:46;;;;;;;4.03;3.27;;;9.30;99.90;;;10.08;95.85;-20070.03;5019915;28;20260;-61
2022/04/07 01:29:19;;;;;;;4.10;3.17;;;9.30;99.90;;;10.21;94.83;-20074.31;5030668;28;20727;-61
2022/04/07 01:31:47;;;;;;;3.60;2.80;;;9.40;99.90;;;9.99;95.91;-20066.78;5030526;28;20304;-61
2022/04/07 01:34:19;;;;;;;4.87;3.07;;;9.30;99.90;;;9.99;96.21;-20066.94;5030649;28;20229;-61
2022/04/07 01:36:52;;;;;;;4.20;3.20;;;9.30;99.90;;;9.92;97.11;-20064.56;5026012;28;20293;-62
2022/04/07 01:39:26;;;;;;;5.63;2.87;;;9.30;99.90;;;9.90;96.88;-20063.88;5010939;28;20301;-60
2022/04/07 01:41:56;;;;;;;4.23;2.90;;;9.30;99.90;;;9.89;97.56;-20063.69;5010620;28;20230;-61
2022/04/07 01:44:27;;;;;;;4.67;2.83;;;9.20;99.90;;;10.21;95.55;-20074.47;5010765;28;20254;-60
2022/04/07 01:46:57;;;;;;;4.97;3.23;;;9.20;99.90;;;9.93;97.09;-20064.72;5009748;28;20237;-60
2022/04/07 01:49:27;;;;;;;4.57;3.33;;;9.20;99.90;;;10.14;96.33;-20072.06;5010907;28;20305;-61
2022/04/07 01:51:55;;;;;;;5.93;2.90;;;9.30;99.90;;;10.12;96.20;-20071.22;5009105;28;20285;-60
2022/04/07 01:54:24;;;;;;;4.43;2.73;;;9.30;99.90;;;9.84;97.58;-20061.81;5010779;28;20222;-61
2022/04/07 01:56:52;;;;;;;4.20;2.70;;;9.20;99.90;;;9.97;97.55;-20066.25;5013939;28;20257;-60
2022/04/07 01:59:22;;;;;;;4.90;2.90;;;9.20;99.90;;;10.02;96.65;-20067.97;5014688;28;20511;-62
2022/04/07 02:01:50;;;;;;;4.90;3.00;;;9.20;99.90;;;9.88;97.51;-20063.03;5015129;28;20230;-61
2022/04/07 02:04:18;;;;;;;3.17;2.87;;;9.20;99.90;;;10.02;97.00;-20067.97;5034459;28;20309;-61
2022/04/07 02:06:46;;;;;;;3.07;2.77;;;9.20;99.90;;;10.17;95.85;-20072.94;5034904;28;20252;-62
2022/04/07 02:09:14;;;;;;;3.00;2.70;;;9.30;99.90;;;10.16;96.59;-20072.59;5034184;28;20228;-61
2022/04/07 02:11:44;;;;;;;3.73;2.90;;;9.30;99.90;;;10.08;97.68;-20069.84;5033946;28;20230;-61
2022/04/07 02:14:13;;;;;;;6.10;3.00;;;9.30;99.90;;;10.05;97.05;-20069.00;5034322;28;20712;-62
2022/04/07 02:16:42;;;;;;;3.50;2.80;;;9.30;99.90;;;10.16;96.50;-20072.75;5034006;28;20257;-61
2022/04/07 02:19:10;;;;;;;3.07;2.43;;;9.30;99.90;;;10.36;95.11;-20079.59;5033891;28;20316;-60
2022/04/07 02:21:38;;;;;;;5.13;3.20;;;9.40;99.90;;;10.63;93.96;-20088.81;5034712;28;20319;-61
2022/04/07 02:24:09;;;;;;;6.00;3.07;;;9.50;99.90;;;10.76;93.00;-20093.09;5033928;28;20225;-62
2022/04/07 02:26:37;;;;;;;7.03;2.93;;;9.70;99.90;;;10.45;94.67;-20082.50;5033811;28;20612;-61
2022/04/07 02:29:05;;;;;;;4.47;2.87;;;9.60;99.90;;;10.74;92.46;-20092.41;5034020;28;20229;-61
2022/04/07 02:31:33;;;;;;;3.40;2.63;;;9.70;99.90;;;10.51;94.26;-20084.72;5033809;28;20228;-61
2022/04/07 02:34:02;;;;;;;3.27;2.97;;;9.70;99.90;;;10.44;95.25;-20082.16;5033500;28;20233;-61
2022/04/07 02:36:30;;;;;;;4.47;2.97;;;9.70;99.90;;;10.57;94.35;-20086.59;5034258;28;20236;-61
2022/04/07 02:38:59;;;;;;;3.57;2.90;;;9.70;99.90;;;10.46;94.82;-20082.84;5033438;28;20225;-62
2022/04/07 02:41:32;;;;;;;2.73;2.47;;;9.70;99.90;;;10.39;95.78;-20080.44;5033720;28;20234;-61
2022/04/07 02:44:02;;;;;;;4.47;2.80;;;9.60;99.90;;;10.40;95.96;-20080.97;5033743;28;20245;-61
2022/04/07 02:46:30;;;;;;;3.67;2.80;;;9.60;99.90;;;10.29;97.09;-20077.03;5034015;28;20232;-60
2022/04/07 02:48:58;;;;;;;4.43;2.90;;;9.50;99.90;;;10.58;95.61;-20086.94;5033365;28;20198;-61
2022/04/07 02:51:28;;;;;;;5.00;2.77;;;9.60;99.90;;;10.61;95.30;-20087.97;5031124;28;20286;-61
2022/04/07 02:53:58;;;;;;;5.97;2.70;;;9.60;99.90;;;10.46;95.95;-20083.00;5013457;28;20302;-60
2022/04/07 02:56:26;;;;;;;4.03;2.70;;;9.60;99.90;;;10.34;96.46;-20078.75;5013718;28;20288;-60
2022/04/07 02:58:54;;;;;;;3.50;3.07;;;9.60;99.90;;;10.13;98.27;-20071.72;5013629;28;20227;-60
2022/04/07 03:01:29;;;;;;;5.93;3.10;;;9.50;99.90;;;10.07;99.70;-20069.69;5013975;28;20225;-60
2022/04/07 03:03:57;;;;;;;7.77;3.10;;;9.40;99.90;;;9.91;100.00;-20064.22;5031273;28;20210;-61
2022/04/07 03:06:25;;;;;;;4.00;2.70;;;9.30;99.90;;;10.09;100.00;-20070.38;5033948;28;20193;-61
2022/04/07 03:08:54;;;;;;;5.73;2.90;;;9.20;99.90;;;9.85;100.00;-20062.34;5033115;28;20529;-62
2022/04/07 03:11:22;;;;;;;4.43;2.90;;;9.20;99.90;;;10.00;100.00;-20067.13;5033485;28;20265;-61
2022/04/07 03:13:50;;;;;;;4.33;2.90;;;9.20;99.90;;;10.22;100.00;-20074.63;5033039;28;20218;-61
2022/04/07 03:16:18;;;;;;;3.67;2.67;;;9.30;99.90;;;10.13;100.00;-20071.56;5033413;28;20222;-61
2022/04/07 03:18:47;;;;;;;4.35;2.60;;;9.30;99.90;;;10.30;100.00;-20077.38;5033714;28;20232;-61
2022/04/07 03:21:14;;;;;;;3.23;2.67;;;9.30;99.90;;;10.18;100.00;-20073.44;5033179;28;20222;-62
2022/04/07 03:23:42;;;;;;;4.37;2.80;;;9.30;99.90;;;10.37;100.00;-20079.75;5032627;28;20280;-60
2022/04/07 03:26:12;;;;;;;2.90;2.53;;;9.40;99.90;;;10.19;100.00;-20073.63;5032954;28;20306;-62
2022/04/07 03:28:40;;;;;;;3.50;2.50;;;9.40;99.90;;;10.14;100.00;-20071.91;5032788;28;20224;-60
2022/04/07 03:31:08;;;;;;;4.50;2.70;;;9.40;99.90;;;10.38;100.00;-20080.09;5013431;28;20302;-61
2022/04/07 03:33:36;;;;;;;3.50;2.63;;;9.40;99.90;;;10.52;100.00;-20084.88;5028316;28;20697;-62
2022/04/07 03:36:05;;;;;;;3.00;2.70;;;9.50;99.90;;;10.63;98.83;-20088.81;5032725;28;20333;-60
2022/04/07 03:38:33;;;;;;;4.47;2.80;;;9.50;99.90;;;10.48;99.45;-20083.53;5032437;28;20309;-60
2022/04/07 03:41:01;;;;;;;5.70;2.63;;;9.60;99.90;;;10.55;99.87;-20085.91;5032543;28;20237;-61
2022/04/07 03:43:30;;;;;;;3.90;2.90;;;9.60;99.90;;;10.52;100.00;-20085.06;5032526;28;20253;-61
2022/04/07 03:45:58;;;;;;;3.93;2.70;;;9.60;99.90;;;10.55;99.20;-20085.91;5032725;28;20198;-61
2022/04/07 03:48:26;;;;;;;4.43;3.10;;;9.70;99.90;;;10.41;100.00;-20081.13;5033194;28;20221;-61
2022/04/07 03:50:56;;;;;;;3.57;2.80;;;9.60;99.90;;;10.23;100.00;-20075.16;5032540;28;20585;-62
2022/04/07 03:53:24;;;;;;;4.27;2.93;;;9.50;99.90;;;10.08;100.00;-20070.03;5013073;28;20324;-62
2022/04/07 03:55:52;;;;;;;3.30;3.00;;;9.50;99.90;;;10.18;100.00;-20073.28;5012706;28;20257;-60
2022/04/07 03:58:20;;;;;;;4.27;2.73;;;9.40;99.90;;;10.25;100.00;-20075.66;5012540;28;20745;-61
2022/04/07 04:00:49;;;;;;;5.50;3.20;;;9.50;99.90;;;10.40;100.00;-20080.97;5013235;28;20222;-61
2022/04/07 04:03:17;;;;;;;2.83;2.57;;;9.50;99.90;;;10.35;100.00;-20079.09;5025109;28;20225;-61
2022/04/07 04:05:45;;;;;;;3.40;3.10;;;9.50;99.90;;;10.36;100.00;-20079.59;5032233;28;20272;-60
2022/04/07 04:08:13;;;;;;;3.90;2.77;;;9.50;99.90;;;10.47;100.00;-20083.19;5031980;28;20316;-60
2022/04/07 04:10:41;;;;;;;3.93;3.07;;;9.50;99.90;;;10.39;100.00;-20080.44;5032176;28;20234;-61
2022/04/07 04:13:10;;;;;;;4.33;2.93;;;9.50;99.90;;;10.39;100.00;-20080.44;5031864;28;20304;-62
2022/04/07 04:15:38;;;;;;;3.07;2.77;;;9.60;99.90;;;10.65;100.00;-20089.50;5032648;28;20297;-60
2022/04/07 04:18:07;;;;;;;3.10;2.80;;;9.60;99.90;;;10.64;100.00;-20088.97;5031302;28;20603;-61
2022/04/07 04:20:35;;;;;;;5.40;3.00;;;9.70;99.90;;;10.61;100.00;-20087.97;5031868;28;20232;-60
2022/04/07 04:23:03;;;;;;;3.20;2.73;;;9.70;99.90;;;10.69;100.00;-20090.69;5031835;28;20236;-61
2022/04/07 04:25:31;;;;;;;3.80;2.80;;;9.70;99.90;;;10.62;100.00;-20088.47;5031346;28;20312;-61
2022/04/07 04:27:59;;;;;;;3.97;2.97;;;9.70;99.90;;;10.44;100.00;-20082.16;5032209;28;20209;-62
2022/04/07 04:30:27;;;;;;;3.83;3.10;;;9.60;99.90;;;10.37;100.00;-20079.75;5032336;28;20600;-62
2022/04/07 04:32:55;;;;;;;3.40;2.63;;;9.60;99.90;;;10.43;100.00;-20082.00;5031553;28;20776;-60
2022/04/07 04:35:25;;;;;;;3.53;2.93;;;9.50;99.90;;;10.27;100.00;-20076.34;5031633;28;20291;-65
2022/04/07 04:37:52;;;;;;;3.27;2.97;;;9.50;99.90;;;10.17;100.00;-20072.94;5031666;28;20221;-62
2022/04/07 04:40:21;;;;;;;3.47;3.17;;;9.50;99.90;;;10.30;100.00;-20077.53;5031078;28;20669;-61
2022/04/07 04:42:49;;;;;;;4.57;3.23;;;9.40;99.90;;;10.28;100.00;-20076.88;5032147;28;20293;-61
2022/04/07 04:45:17;;;;;;;3.00;2.70;;;9.50;99.90;;;10.33;100.00;-20078.41;5031270;28;20321;-61
2022/04/07 04:47:45;;;;;;;3.07;2.77;;;9.50;99.90;;;10.08;100.00;-20070.03;5031474;28;20313;-61
2022/04/07 04:50:14;;;;;;;4.60;2.87;;;9.40;99.90;;;10.06;100.00;-20069.34;5031194;28;20684;-60
2022/04/07 04:52:43;;;;;;;3.83;3.07;;;9.40;99.90;;;10.29;100.00;-20077.03;5017870;28;20743;-61
2022/04/07 04:55:11;;;;;;;4.17;2.77;;;9.40;99.90;;;10.30;100.00;-20077.53;5003723;28;20210;-61
2022/04/07 04:57:39;;;;;;;3.40;3.10;;;9.50;99.90;;;10.33;100.00;-20078.41;5024664;28;20289;-61
2022/04/07 05:00:08;;;;;;;2.87;2.67;;;9.50;99.90;;;10.42;100.00;-20081.47;5011094;28;20250;-61
2022/04/07 05:02:37;;;;;;;3.37;3.07;;;9.50;99.90;;;10.35;100.00;-20079.25;5017729;28;20332;-59
2022/04/07 05:05:07;;;;;;;3.20;2.83;;;9.60;99.90;;;10.66;100.00;-20089.84;5030330;28;20739;-61
2022/04/07 05:07:35;;;;;;;3.70;2.83;;;9.60;99.90;;;10.63;100.00;-20088.81;5031119;28;20226;-62
2022/04/07 05:10:07;;;;;;;2.97;2.77;;;9.70;99.90;;;10.52;100.00;-20085.06;5030686;28;20308;-61
2022/04/07 05:12:35;;;;;;;4.03;2.90;;;9.70;99.90;;;10.33;100.00;-20078.41;5023732;28;20294;-61
2022/04/07 05:15:06;;;;;;;3.67;3.00;;;9.70;99.90;;;10.30;100.00;-20077.53;5010974;28;20254;-61
2022/04/07 05:17:34;;;;;;;4.20;2.90;;;9.60;99.90;;;10.45;100.00;-20082.66;5011170;28;20230;-61
2022/04/07 05:20:03;;;;;;;4.10;2.90;;;9.60;99.90;;;10.55;100.00;-20085.91;5010890;28;20230;-60
2022/04/07 05:22:31;;;;;;;4.40;2.90;;;9.70;99.90;;;10.80;100.00;-20094.63;5022570;28;20226;-61
2022/04/07 05:24:59;;;;;;;2.80;2.50;;;9.80;99.90;;;10.80;100.00;-20094.44;5030683;28;20678;-61
2022/04/07 05:27:32;;;;;;;3.30;2.70;;;9.90;99.90;;;10.98;100.00;-20100.59;5031329;28;20306;-61
2022/04/07 05:30:00;;;;;;;7.63;2.70;;;10.00;99.90;;;11.12;98.99;-20105.22;5029680;28;20317;-61
2022/04/07 05:32:28;;;;;;;3.83;2.83;;;10.00;99.90;;;11.01;98.84;-20101.63;5030614;28;20340;-61
2022/04/07 05:34:57;;;;;;;3.93;2.43;;;10.10;99.90;;;11.21;96.09;-20108.47;5030201;28;20776;-60
2022/04/07 05:37:25;;;;;;;4.50;3.03;;;10.20;99.90;;;11.29;94.72;-20111.00;5030641;28;20309;-61
2022/04/07 05:39:53;;;;;;;2.73;2.07;;;10.30;99.90;;;11.40;93.51;-20114.94;5030265;28;20631;-59
2022/04/07 05:42:21;;;;;;;2.53;2.33;;;10.30;99.90;;;11.41;93.16;-20115.28;5030540;28;20700;-61
2022/04/07 05:44:50;;;;;;;2.00;1.73;;;10.40;99.90;;;11.46;91.54;-20117.00;5030422;28;20233;-61
2022/04/07 05:47:18;;;;;;;3.03;1.97;;;10.50;99.90;;;11.53;89.93;-20119.38;5030259;28;20230;-62
2022/04/07 05:49:46;;;;;;;2.40;1.97;;;10.60;99.90;;;11.38;91.12;-20114.25;5030387;28;20304;-60
2022/04/07 05:52:14;;;;;;;4.00;2.10;;;10.50;99.90;;;11.55;89.00;-20119.91;5020805;28;20305;-61
2022/04/07 05:54:42;;;;;;;3.17;2.13;;;10.60;99.90;;;11.61;88.60;-20121.94;5011153;28;20207;-61
2022/04/07 05:57:10;;;;;;;2.90;1.90;;;10.60;99.90;;;11.68;88.72;-20124.34;5010434;28;20249;-61
2022/04/07 05:59:38;;;;;;;2.60;1.90;;;10.60;99.90;;;11.69;87.04;-20124.84;5010512;28;20321;-63
2022/04/07 06:02:08;;;;;;;2.40;1.67;;;10.70;99.90;;;11.62;87.76;-20122.47;5012779;28;20244;-60
2022/04/07 06:04:39;;;;;;;2.17;1.80;;;10.70;99.90;;;11.76;86.31;-20127.06;5030264;28;20651;-61
2022/04/07 06:07:07;;;;;;;3.53;2.30;;;10.80;99.90;;;11.91;85.38;-20132.38;5029893;28;20226;-61
2022/04/07 06:09:35;;;;;;;1.97;1.53;;;10.90;99.90;;;12.02;84.67;-20136.13;5030332;28;20728;-61
2022/04/07 06:12:04;;;;;;;1.67;1.50;;;10.90;99.90;;;12.11;83.83;-20139.03;5029519;28;20307;-61
2022/04/07 06:14:32;;;;;;;2.00;1.50;;;11.00;99.90;;;12.16;82.50;-20140.91;5029971;28;20320;-60
2022/04/07 06:17:01;;;;;;;2.37;1.70;;;11.10;99.90;;;12.06;83.82;-20137.50;5029584;28;20226;-62
2022/04/07 06:19:31;;;;;;;2.40;1.57;;;11.10;99.90;;;12.15;84.19;-20140.41;5029432;28;20225;-61
2022/04/07 06:21:59;;;;;;;2.00;1.60;;;11.20;99.90;;;12.26;84.23;-20144.16;5030074;28;20256;-61
2022/04/07 06:24:27;;;;;;;2.30;1.60;;;11.30;99.90;;;12.21;83.99;-20142.63;5030237;28;20306;-61
2022/04/07 06:26:55;;;;;;;1.93;1.60;;;11.30;99.90;;;12.09;84.71;-20138.34;5029503;28;20256;-60
2022/04/07 06:29:23;;;;;;;1.50;1.40;;;11.20;99.90;;;12.34;84.43;-20146.72;5027435;28;20228;-62
2022/04/07 06:31:51;;;;;;;1.70;1.60;;;11.30;99.90;;;12.32;84.60;-20146.03;5030348;28;20221;-60
2022/04/07 06:34:21;;;;;;;3.53;1.77;;;11.30;99.90;;;12.18;85.26;-20141.41;5030378;28;20222;-61
2022/04/07 06:36:51;;;;;;;2.47;1.90;;;11.30;99.90;;;12.37;84.53;-20147.72;5030135;28;20293;-60
2022/04/07 06:39:19;;;;;;;4.20;1.80;;;11.40;99.90;;;12.44;84.88;-20150.13;5029657;28;20580;-60
2022/04/07 06:41:47;;;;;;;2.13;1.33;;;11.50;99.90;;;12.52;84.48;-20153.03;5031002;28;20720;-60
2022/04/07 06:44:15;;;;;;;2.00;1.40;;;11.60;99.90;;;12.80;83.33;-20162.59;5033445;28;20317;-61
2022/04/07 06:46:43;;;;;;;1.77;1.30;;;11.70;99.90;;;12.74;83.38;-20160.38;5033167;28;20234;-60
2022/04/07 06:49:11;;;;;;;1.60;1.30;;;11.70;99.90;;;12.88;83.68;-20165.16;5033352;28;20292;-61
2022/04/07 06:51:39;;;;;;;1.93;0.90;;;11.80;99.90;;;12.97;82.53;-20168.22;5029029;28;20219;-60
2022/04/07 06:54:09;;;;;;;1.30;1.20;;;11.90;99.90;;;13.20;82.26;-20176.09;5013359;28;20714;-61
2022/04/07 06:56:36;;;;;;;2.13;1.23;;;12.10;99.90;;;13.26;82.08;-20178.13;5013182;28;20313;-61
2022/04/07 06:59:05;;;;;;;1.83;1.10;;;12.20;99.90;;;13.43;81.13;-20183.94;5013499;28;20226;-61
2022/04/07 07:01:34;;;;;;;2.53;1.20;;;12.30;99.90;;;13.52;79.43;-20187.00;5013165;28;20231;-62
2022/04/07 07:04:05;;;;;;;1.60;1.43;;;12.40;99.90;;;13.40;80.84;-20183.09;5031833;28;20554;-60
2022/04/07 07:06:33;;;;;;;1.77;1.20;;;12.40;99.90;;;13.29;81.39;-20179.16;5031964;28;20209;-67
2022/04/07 07:09:01;;;;;;;0.80;0.80;;;12.30;99.90;;;13.40;80.96;-20182.91;5032761;28;20292;-62
2022/04/07 07:11:30;;;;;;;2.17;1.63;;;12.30;99.90;;;13.52;79.18;-20187.00;5032690;28;20244;-60
2022/04/07 07:13:58;;;;;;;1.33;0.80;;;12.40;99.90;;;13.70;77.93;-20193.16;5032077;28;20305;-61
2022/04/07 07:16:27;;;;;;;2.40;0.90;;;12.50;99.90;;;13.70;77.86;-20193.16;5032626;28;20236;-64
2022/04/07 07:18:55;;;;;;;0.90;0.90;;;12.60;99.90;;;13.74;77.17;-20194.34;5032929;28;20297;-60
2022/04/07 07:21:23;;;;;;;0.90;0.90;;;12.60;99.90;;;13.79;77.24;-20196.06;5032676;28;20789;-60
2022/04/07 07:23:51;;;;;;;1.13;0.90;;;12.70;99.90;;;13.62;77.86;-20190.25;5032434;28;20234;-60
2022/04/07 07:26:19;;;;;;;1.93;0.90;;;12.60;99.90;;;13.92;77.77;-20200.66;5032375;28;20249;-60
2022/04/07 07:28:48;;;;;;;2.60;1.20;;;12.70;99.90;;;14.08;75.99;-20206.13;5032356;28;20228;-63
2022/04/07 07:31:16;;;;;;;1.10;0.90;;;12.80;99.90;;;14.00;77.22;-20203.41;5032373;28;20306;-62
2022/04/07 07:33:44;;;;;;;1.37;0.90;;;12.80;99.90;;;14.05;76.84;-20204.94;5032869;28;20217;-60
2022/04/07 07:36:12;;;;;;;1.23;1.13;;;12.90;99.90;;;14.18;76.44;-20209.53;5032385;28;20644;-61
2022/04/07 07:38:40;;;;;;;1.43;1.10;;;13.00;99.90;;;13.98;76.21;-20202.72;5032202;28;20265;-59
2022/04/07 07:41:08;;;;;;;2.10;1.20;;;13.00;99.90;;;13.81;78.09;-20196.91;5032217;28;20232;-60
2022/04/07 07:43:36;;;;;;;0.93;0.90;;;12.90;99.90;;;13.87;77.40;-20198.94;5032160;28;20228;-60
2022/04/07 07:46:05;;;;;;;1.20;0.93;;;12.90;99.90;;;13.83;77.43;-20197.59;5032017;28;20237;-61
2022/04/07 07:48:34;;;;;;;2.03;0.87;;;12.90;99.90;;;13.93;77.31;-20200.84;5032698;28;20254;-68
2022/04/07 07:51:02;;;;;;;0.90;0.90;;;13.00;99.90;;;13.78;77.82;-20195.72;5032539;28;20222;-63
2022/04/07 07:53:30;;;;;;;1.70;0.83;;;12.90;99.90;;;13.75;77.88;-20194.84;5011145;28;20237;-63
2022/04/07 07:55:57;;;;;;;2.60;0.70;;;12.80;99.90;;;13.87;77.08;-20198.78;5011971;28;20229;-62
2022/04/07 07:58:26;;;;;;;0.80;0.80;;;12.90;99.90;;;14.15;76.46;-20208.50;5011997;28;20219;-63
2022/04/07 08:00:56;;;;;;;1.37;0.70;;;13.10;99.90;;;14.42;74.04;-20217.56;5012342;28;20213;-64
2022/04/07 08:03:25;;;;;;;0.70;0.70;;;13.30;99.90;;;14.62;74.37;-20224.56;5025805;28;20324;-64
2022/04/07 08:05:53;;;;;;;0.67;0.60;;;13.40;99.90;;;14.59;73.49;-20223.38;5031865;28;20229;-63
2022/04/07 08:08:21;;;;;;;2.17;1.30;;;13.50;99.90;;;14.34;73.88;-20214.84;5031552;28;20515;-63
2022/04/07 08:10:49;;;;;;;0.73;0.70;;;13.40;99.90;;;14.19;74.05;-20209.88;5031693;28;20218;-61
2022/04/07 08:13:17;;;;;;;1.00;0.70;;;13.30;99.90;;;14.29;74.04;-20213.28;5031470;28;20253;-61
2022/04/07 08:15:46;;;;;;;1.53;0.83;;;13.30;99.90;;;14.55;74.17;-20222.16;5032273;28;20260;-60
2022/04/07 08:18:14;;;;;;;1.13;0.80;;;13.40;99.90;;;14.89;71.73;-20233.44;5031356;28;20230;-60
2022/04/07 08:20:43;;;;;;;1.33;0.90;;;13.70;99.90;;;15.04;71.57;-20238.56;5031426;28;20253;-61
2022/04/07 08:23:12;;;;;;;1.80;0.80;;;13.80;99.90;;;14.92;70.78;-20234.44;5031146;28;20230;-61
2022/04/07 08:25:41;;;;;;;1.33;0.82;;;13.80;99.90;;;14.79;71.17;-20230.19;5031215;28;20279;-64
2022/04/07 08:28:10;;;;;;;2.40;0.80;;;13.80;99.90;;;14.74;71.36;-20228.31;5031240;28;20292;-57
2022/04/07 08:30:38;;;;;;;1.70;0.77;;;13.80;99.90;;;15.09;70.25;-20240.44;5031938;28;20289;-59
2022/04/07 08:33:07;;;;;;;0.73;0.70;;;13.90;99.90;;;14.92;69.35;-20234.63;5031013;28;20788;-59
2022/04/07 08:35:34;;;;;;;1.85;0.90;;;13.90;99.90;;;14.91;69.84;-20234.28;5031147;28;20246;-62
2022/04/07 08:38:04;;;;;;;1.40;0.80;;;13.90;99.90;;;15.18;68.41;-20243.34;5030930;28;20600;-61
2022/04/07 08:40:36;;;;;;;2.00;0.70;;;14.00;99.90;;;15.04;67.99;-20238.56;5030907;28;20245;-65
2022/04/07 08:43:04;;;;;;;0.85;0.70;;;14.00;99.90;;;14.93;69.48;-20234.81;5031183;28;20605;-64
2022/04/07 08:45:33;;;;;;;2.42;0.85;;;14.00;99.90;;;15.19;67.16;-20243.84;5031797;28;20202;-64
2022/04/07 08:48:03;;;;;;;0.73;0.70;;;14.00;99.90;;;15.05;67.05;-20239.06;5030775;28;20236;-61
2022/04/07 08:50:35;;;;;;;2.55;0.70;;;14.10;99.90;;;14.84;67.68;-20231.91;5031004;28;20309;-60
2022/04/07 08:53:04;;;;;;;1.83;0.70;;;13.90;99.90;;;15.15;67.34;-20242.31;5014566;28;20233;-60
2022/04/07 08:55:32;;;;;;;1.25;0.80;;;14.00;99.90;;;15.34;66.45;-20248.78;5010887;28;20225;-59
2022/04/07 08:58:00;;;;;;;2.15;0.80;;;14.00;99.90;;;15.42;66.56;-20251.53;5011140;28;20574;-61
2022/04/07 09:00:29;;;;;;;1.10;0.70;;;14.10;99.90;;;15.40;65.24;-20251.03;5030142;28;20202;-61
2022/04/07 09:02:56;;;;;;;1.27;1.08;;;14.20;99.90;;;15.58;64.34;-20257.16;5021043;28;20321;-60
2022/04/07 09:05:31;;;;;;;1.20;0.90;;;14.40;99.90;;;15.79;63.74;-20264.16;5010798;28;20230;-59
2022/04/07 09:07:59;;;;;;;1.15;0.80;;;14.60;99.90;;;15.53;61.93;-20255.28;5025960;28;20253;-60
2022/04/07 09:10:29;;;;;;;1.70;0.70;;;14.50;99.90;;;15.46;62.61;-20253.06;5030601;28;20308;-59
2022/04/07 09:13:05;;;;;;;1.08;0.82;;;14.40;99.90;;;15.73;62.55;-20262.28;5030825;28;20233;-59
2022/04/07 09:15:33;;;;;;;1.27;0.95;;;14.60;99.90;;;15.70;62.94;-20261.09;5031257;28;20186;-59
2022/04/07 09:18:01;;;;;;;1.00;0.80;;;14.60;99.90;;;15.77;62.37;-20263.66;5030592;28;20230;-59
2022/04/07 09:20:30;;;;;;;2.30;0.57;;;14.60;99.90;;;15.84;61.35;-20265.84;5030509;28;20308;-60
2022/04/07 09:22:59;;;;;;;1.15;0.57;;;14.70;99.90;;;16.03;60.35;-20272.34;5030411;28;20268;-62
2022/04/07 09:25:29;;;;;;;0.50;0.50;;;14.90;99.90;;;16.30;60.61;-20281.56;5030155;28;20229;-61
2022/04/07 09:28:00;;;;;;;1.95;0.90;;;15.10;99.90;;;16.44;60.20;-20286.31;5030323;28;20206;-61
2022/04/07 09:30:38;;;;;;;1.35;0.70;;;15.20;99.90;;;16.26;58.94;-20280.19;5030797;28;20197;-60
2022/04/07 09:33:06;;;;;;;2.40;0.75;;;15.20;99.90;;;16.23;60.07;-20279.00;5030335;28;20267;-62
2022/04/07 09:35:34;;;;;;;1.20;0.55;;;15.10;99.90;;;16.14;59.58;-20276.09;5030223;28;20644;-61
2022/04/07 09:38:03;;;;;;;3.58;0.70;;;15.10;99.90;;;16.05;60.15;-20273.03;5030341;28;20256;-61
2022/04/07 09:40:33;;;;;;;2.30;0.60;;;15.10;99.90;;;16.06;60.65;-20273.19;5029830;28;20229;-61
2022/04/07 09:43:01;;;;;;;2.55;0.80;;;15.00;99.90;;;16.04;61.31;-20272.50;5030325;28;20317;-62
2022/04/07 09:45:29;;;;;;;3.53;0.80;;;15.00;99.90;;;15.91;61.86;-20268.25;5030675;28;20210;-61
2022/04/07 09:48:18;;;;;;;2.75;0.60;;;14.90;99.90;;;16.01;61.61;-20271.66;5030352;28;20233;-61
2022/04/07 09:51:02;;;;;;;4.35;0.60;;;14.90;99.90;;;16.30;59.86;-20281.56;5030049;28;20238;-62
2022/04/07 09:53:38;;;;;;;4.50;0.70;;;15.20;99.90;;;16.35;59.85;-20283.25;5010309;28;20283;-60
2022/04/07 09:56:08;;;;;;;5.68;0.80;;;15.20;99.90;;;15.74;61.21;-20262.63;5023487;28;20324;-60
2022/04/07 09:58:36;;;;;;;1.48;0.50;;;15.00;99.90;;;15.23;63.03;-20245.22;5030254;28;20247;-65
2022/04/07 10:01:05;;;;;;;1.67;0.88;;;14.70;99.90;;;15.46;62.62;-20253.06;5030299;28;20202;-70
2022/04/07 10:03:34;;;;;;;2.25;0.55;;;14.40;99.90;;;15.53;62.53;-20255.44;5025661;28;20226;-70
2022/04/07 10:06:02;;;;;;;2.00;0.70;;;14.50;99.90;;;15.71;62.83;-20261.44;5029885;28;20502;-70
2022/04/07 10:08:32;;;;;;;2.58;0.93;;;14.50;99.90;;;15.73;62.55;-20262.09;5029828;28;20316;-62
2022/04/07 10:11:03;;;;;;;2.15;0.90;;;14.60;99.90;;;15.71;61.58;-20261.44;5029775;28;20304;-59
2022/04/07 10:13:35;;;;;;;1.55;0.55;;;14.60;99.90;;;15.70;62.45;-20261.25;5030011;28;20221;-60
2022/04/07 10:16:04;;;;;;;4.20;0.80;;;14.70;99.90;;;15.47;62.95;-20253.22;5030605;28;20186;-61
2022/04/07 10:18:40;;;;;;;1.08;0.70;;;14.60;99.90;;;15.27;64.03;-20246.41;5034516;28;20296;-62
2022/04/07 10:21:23;;;;;;;4.25;0.90;;;14.60;99.90;;;15.05;64.69;-20239.06;5033698;28;20275;-62
2022/04/07 10:24:12;;;;;;;9.75;0.95;;;14.20;99.90;;;14.89;65.66;-20233.44;5033509;28;20231;-59